Terminal Aerodrome Forecast
Issued by NWS

Home | Current Version | Previous Version | Text Only | Print | Product List | Glossary On
Versions: 1 2 3 4 5 6 7 8 9 10 11 12
000
FTUS41 KBTV 311733
TAFRUT
TAF
KRUT 311733Z 3118/0118 23006KT P6SM VCSH BKN100
     FM010000 16004KT P6SM VCSH BKN070
     FM010600 VRB03KT P6SM BKN025 BKN035
     FM011300 VRB03KT P6SM BKN030
     FM011500 34007KT P6SM SCT070
      AMD LTD TO CLD VIS AND WIND=

USA.gov is the U.S. government's official web portal to all federal, state and local government web resources and services.